Time;durP1;ratioP1;P1;durP2;ratioP2;P2;SDS_P1;SDS_P2;PMS_P1;PMS_P2;Temp;Humidity;BMP_temperature;BMP_pressure;BME280_temperature;BME280_humidity;BME280_pressure;Samples;Min_cycle;Max_cycle;Signal;HPM_P1;HPM_P2
2024/01/13 00:01:00;;;;;;;46.92;42.53;;;;;;;;;;4991592;28;20226;-78
2024/01/13 00:03:27;;;;;;;59.35;53.03;;;;;;;;;;4991104;28;20212;-77
2024/01/13 00:05:54;;;;;;;62.40;55.85;;;;;;;;;;4990328;28;20218;-77
2024/01/13 00:08:21;;;;;;;51.55;47.08;;;;;;;;;;4991194;28;20238;-76
2024/01/13 00:10:50;;;;;;;59.35;52.85;;;;;;;;;;4991198;28;20584;-76
2024/01/13 00:13:17;;;;;;;55.30;50.20;;;;;;;;;;4991529;28;20210;-77
2024/01/13 00:15:44;;;;;;;59.35;53.13;;;;;;;;;;4990944;28;20239;-78
2024/01/13 00:18:12;;;;;;;56.42;51.05;;;;;;;;;;4991123;28;20265;-76
2024/01/13 00:20:39;;;;;;;58.97;52.97;;;;;;;;;;4991042;28;20736;-76
2024/01/13 00:23:06;;;;;;;57.67;51.63;;;;;;;;;;4991502;28;20246;-79
2024/01/13 00:25:33;;;;;;;56.40;50.10;;;;;;;;;;4990763;28;20210;-79
2024/01/13 00:28:01;;;;;;;56.25;50.60;;;;;;;;;;4991233;28;20226;-77
2024/01/13 00:30:28;;;;;;;58.60;52.80;;;;;;;;;;4991125;28;20210;-78
2024/01/13 00:32:55;;;;;;;53.17;47.80;;;;;;;;;;4991224;28;20253;-78
2024/01/13 00:35:22;;;;;;;55.97;50.80;;;;;;;;;;5007659;28;20731;-78
2024/01/13 00:37:49;;;;;;;54.30;49.47;;;;;;;;;;5010565;28;20241;-77
2024/01/13 00:40:16;;;;;;;54.90;50.03;;;;;;;;;;5010018;28;20217;-77
2024/01/13 00:42:43;;;;;;;48.33;44.60;;;;;;;;;;5010373;28;20225;-77
2024/01/13 00:45:12;;;;;;;53.95;49.35;;;;;;;;;;5010611;28;20209;-78
2024/01/13 00:47:39;;;;;;;55.05;50.40;;;;;;;;;;5009956;28;20260;-77
2024/01/13 00:50:06;;;;;;;48.65;45.00;;;;;;;;;;4995568;28;20246;-77
2024/01/13 00:52:33;;;;;;;52.65;47.78;;;;;;;;;;4990912;28;20330;-77
2024/01/13 00:55:01;;;;;;;51.22;46.53;;;;;;;;;;4990560;28;20965;-76
2024/01/13 00:57:28;;;;;;;53.83;48.97;;;;;;;;;;4990582;28;20232;-77
2024/01/13 00:59:55;;;;;;;54.35;49.28;;;;;;;;;;4994576;28;20322;-78
2024/01/13 01:02:23;;;;;;;50.92;46.05;;;;;;;;;;4994613;28;20689;-76
2024/01/13 01:04:50;;;;;;;46.30;42.60;;;;;;;;;;4994617;28;20203;-77
2024/01/13 01:07:17;;;;;;;53.90;49.35;;;;;;;;;;4994407;28;20210;-77
2024/01/13 01:09:44;;;;;;;54.25;49.40;;;;;;;;;;4993967;28;20230;-77
2024/01/13 01:12:11;;;;;;;52.38;47.92;;;;;;;;;;4994291;28;20214;-78
2024/01/13 01:14:38;;;;;;;52.97;48.83;;;;;;;;;;4994965;28;20665;-77
2024/01/13 01:17:05;;;;;;;48.80;45.17;;;;;;;;;;4994436;28;20210;-77
2024/01/13 01:19:34;;;;;;;52.10;47.83;;;;;;;;;;4994972;28;20285;-77
2024/01/13 01:22:01;;;;;;;46.53;42.08;;;;;;;;;;4997741;28;20221;-78
2024/01/13 01:24:28;;;;;;;44.30;40.97;;;;;;;;;;4994263;28;20217;-77
2024/01/13 01:26:55;;;;;;;49.78;45.67;;;;;;;;;;4993999;28;20210;-77
2024/01/13 01:29:22;;;;;;;53.22;48.38;;;;;;;;;;4994084;28;20261;-77
2024/01/13 01:31:49;;;;;;;45.97;42.60;;;;;;;;;;4994182;28;20505;-78
2024/01/13 01:34:16;;;;;;;43.00;39.80;;;;;;;;;;4994233;28;20210;-76
2024/01/13 01:36:44;;;;;;;49.47;45.35;;;;;;;;;;4993538;28;20257;-77
2024/01/13 01:39:11;;;;;;;50.17;45.88;;;;;;;;;;4992813;28;20807;-78
2024/01/13 01:41:39;;;;;;;47.15;43.63;;;;;;;;;;4994130;28;20222;-77
2024/01/13 01:44:06;;;;;;;51.72;47.55;;;;;;;;;;4974778;28;20213;-76
2024/01/13 01:46:33;;;;;;;40.60;38.08;;;;;;;;;;4974075;28;20342;-78
2024/01/13 01:49:00;;;;;;;46.65;43.15;;;;;;;;;;4974503;28;20394;-76
2024/01/13 01:51:28;;;;;;;50.78;46.50;;;;;;;;;;4974428;28;20210;-78
2024/01/13 01:53:56;;;;;;;47.28;43.47;;;;;;;;;;4974307;28;20214;-76
2024/01/13 01:56:24;;;;;;;48.88;45.13;;;;;;;;;;4973726;28;20278;-78
2024/01/13 01:58:52;;;;;;;47.05;43.45;;;;;;;;;;4974065;28;20285;-77
2024/01/13 02:01:20;;;;;;;51.00;46.60;;;;;;;;;;4974305;28;20221;-77
2024/01/13 02:03:48;;;;;;;48.72;44.63;;;;;;;;;;4974020;28;20202;-77
2024/01/13 02:06:15;;;;;;;48.65;44.65;;;;;;;;;;4973929;28;20214;-77
2024/01/13 02:08:42;;;;;;;46.90;43.40;;;;;;;;;;4992936;28;20238;-77
2024/01/13 02:11:11;;;;;;;48.28;44.30;;;;;;;;;;4993255;28;20225;-76
2024/01/13 02:13:38;;;;;;;38.83;36.47;;;;;;;;;;4993802;28;20297;-78
2024/01/13 02:16:05;;;;;;;50.33;46.72;;;;;;;;;;4993283;28;20218;-76
2024/01/13 02:18:32;;;;;;;51.53;47.67;;;;;;;;;;4993238;28;20308;-76
2024/01/13 02:20:59;;;;;;;46.65;43.20;;;;;;;;;;4993248;28;20268;-77
2024/01/13 02:23:29;;;;;;;47.20;43.65;;;;;;;;;;4993413;28;20229;-76
2024/01/13 02:25:56;;;;;;;47.25;43.35;;;;;;;;;;4993001;28;20214;-78
2024/01/13 02:28:23;;;;;;;49.00;44.95;;;;;;;;;;4993288;28;20249;-77
2024/01/13 02:30:50;;;;;;;39.90;37.63;;;;;;;;;;4993174;28;20210;-77
2024/01/13 02:36:20;;;;;;;45.60;42.08;;;;;;;;;;4970955;28;20218;-76
2024/01/13 02:38:49;;;;;;;47.10;43.50;;;;;;;;;;4973277;28;20290;-77
2024/01/13 02:41:16;;;;;;;48.53;45.00;;;;;;;;;;4984988;28;20210;-77
2024/01/13 02:43:42;;;;;;;45.30;41.90;;;;;;;;;;4992533;28;20214;-78
2024/01/13 02:46:10;;;;;;;43.63;40.60;;;;;;;;;;4992267;28;20210;-79
2024/01/13 02:48:39;;;;;;;43.45;40.22;;;;;;;;;;4991878;28;20304;-78
2024/01/13 02:51:07;;;;;;;43.33;40.45;;;;;;;;;;4972734;28;20282;-77
2024/01/13 02:53:34;;;;;;;47.67;44.08;;;;;;;;;;4973161;28;20626;-76
2024/01/13 02:56:02;;;;;;;46.97;43.47;;;;;;;;;;4972382;28;20266;-78
2024/01/13 02:58:29;;;;;;;46.83;43.70;;;;;;;;;;4972507;28;20235;-77
2024/01/13 03:03:59;;;;;;;49.33;45.72;;;;;;;;;;4971203;28;20564;-77
2024/01/13 03:06:27;;;;;;;40.80;38.30;;;;;;;;;;4972390;28;20262;-79
2024/01/13 03:08:54;;;;;;;41.60;39.15;;;;;;;;;;4972926;28;20290;-77
2024/01/13 03:11:22;;;;;;;46.10;43.05;;;;;;;;;;4973022;28;20210;-78
2024/01/13 03:13:49;;;;;;;46.70;43.42;;;;;;;;;;4972880;28;20265;-77
2024/01/13 03:16:16;;;;;;;46.67;43.28;;;;;;;;;;4972251;28;20215;-77
2024/01/13 03:18:43;;;;;;;49.20;45.70;;;;;;;;;;4972213;28;20234;-77
2024/01/13 03:21:10;;;;;;;48.20;44.80;;;;;;;;;;4972172;28;20214;-78
2024/01/13 03:23:37;;;;;;;48.58;45.30;;;;;;;;;;4972787;28;20230;-77
2024/01/13 03:26:04;;;;;;;46.90;43.70;;;;;;;;;;4972526;28;20207;-77
2024/01/13 03:28:33;;;;;;;49.13;45.80;;;;;;;;;;4972738;28;20230;-76
2024/01/13 03:31:00;;;;;;;46.55;43.40;;;;;;;;;;4972773;28;20273;-78
2024/01/13 03:33:27;;;;;;;50.55;46.88;;;;;;;;;;4972845;28;20262;-78
2024/01/13 03:35:54;;;;;;;44.17;41.55;;;;;;;;;;4972031;28;20218;-76
2024/01/13 03:38:21;;;;;;;44.67;41.67;;;;;;;;;;4972311;28;20282;-78
2024/01/13 03:40:48;;;;;;;45.42;42.63;;;;;;;;;;4972168;28;20210;-76
2024/01/13 03:43:15;;;;;;;44.47;42.00;;;;;;;;;;4972404;28;20269;-78
2024/01/13 03:45:43;;;;;;;46.78;43.50;;;;;;;;;;4971346;28;20675;-77
2024/01/13 03:48:10;;;;;;;45.50;42.88;;;;;;;;;;4971971;28;20226;-78
2024/01/13 03:50:37;;;;;;;46.67;43.67;;;;;;;;;;4972124;28;21032;-78
2024/01/13 03:53:04;;;;;;;46.47;43.88;;;;;;;;;;4971803;28;20231;-78
2024/01/13 03:55:31;;;;;;;53.33;49.80;;;;;;;;;;4971773;28;20262;-77
2024/01/13 03:57:58;;;;;;;53.28;49.97;;;;;;;;;;4972094;28;20270;-77
2024/01/13 04:00:25;;;;;;;56.45;52.45;;;;;;;;;;4971859;28;20206;-78
2024/01/13 04:02:53;;;;;;;53.60;50.33;;;;;;;;;;4971755;28;20227;-77
2024/01/13 04:05:20;;;;;;;56.00;52.70;;;;;;;;;;4971552;28;20653;-77
2024/01/13 04:07:47;;;;;;;57.50;53.67;;;;;;;;;;4972132;28;20364;-78
2024/01/13 04:10:14;;;;;;;54.40;50.83;;;;;;;;;;4971950;28;20213;-77
2024/01/13 04:12:43;;;;;;;55.47;51.97;;;;;;;;;;4972066;28;20262;-77
2024/01/13 04:15:11;;;;;;;52.80;49.85;;;;;;;;;;4972015;28;20214;-77
2024/01/13 04:17:38;;;;;;;50.40;47.80;;;;;;;;;;4971225;28;20214;-77
2024/01/13 04:20:07;;;;;;;54.05;50.45;;;;;;;;;;4972015;28;20214;-78
2024/01/13 04:22:34;;;;;;;56.67;53.38;;;;;;;;;;4971860;28;20262;-78
2024/01/13 04:25:01;;;;;;;54.47;51.47;;;;;;;;;;4971801;28;20206;-77
2024/01/13 04:27:28;;;;;;;55.67;51.97;;;;;;;;;;4971263;28;20269;-77
2024/01/13 04:29:55;;;;;;;55.30;52.05;;;;;;;;;;4970897;28;20610;-76
2024/01/13 04:32:22;;;;;;;59.33;55.28;;;;;;;;;;4972206;28;20611;-77
2024/01/13 04:34:49;;;;;;;54.00;51.28;;;;;;;;;;4976243;28;20206;-77
2024/01/13 04:37:18;;;;;;;53.25;50.10;;;;;;;;;;4975128;28;20617;-77
2024/01/13 04:39:45;;;;;;;46.38;43.78;;;;;;;;;;4975643;28;20226;-77
2024/01/13 04:42:12;;;;;;;51.60;47.97;;;;;;;;;;4975895;28;20250;-76
2024/01/13 04:44:39;;;;;;;49.17;45.67;;;;;;;;;;4975548;28;20203;-78
2024/01/13 04:47:06;;;;;;;54.95;51.10;;;;;;;;;;4975174;28;21015;-78
2024/01/13 04:49:33;;;;;;;51.75;48.05;;;;;;;;;;4974946;28;20227;-77
2024/01/13 04:52:00;;;;;;;49.67;46.45;;;;;;;;;;4975610;28;20269;-77
2024/01/13 04:54:28;;;;;;;50.20;46.30;;;;;;;;;;4975954;28;20261;-77
2024/01/13 04:56:55;;;;;;;45.53;42.25;;;;;;;;;;4975015;28;20214;-77
2024/01/13 04:59:22;;;;;;;42.38;39.85;;;;;;;;;;4975506;28;20234;-77
2024/01/13 05:01:49;;;;;;;44.72;42.13;;;;;;;;;;4975124;28;20214;-78
2024/01/13 05:04:16;;;;;;;47.08;43.72;;;;;;;;;;4975437;28;20230;-77
2024/01/13 05:06:44;;;;;;;45.03;42.05;;;;;;;;;;4974705;28;20210;-78
2024/01/13 05:09:11;;;;;;;50.28;46.55;;;;;;;;;;4975269;28;20253;-77
2024/01/13 05:11:40;;;;;;;49.72;46.35;;;;;;;;;;4975236;28;20207;-77
2024/01/13 05:14:07;;;;;;;47.17;44.20;;;;;;;;;;4983526;28;20230;-78
2024/01/13 05:16:34;;;;;;;41.13;38.90;;;;;;;;;;4974829;28;20211;-78
2024/01/13 05:19:01;;;;;;;47.40;44.22;;;;;;;;;;4974513;28;20722;-77
2024/01/13 05:21:28;;;;;;;45.47;42.45;;;;;;;;;;4975060;28;20285;-78
2024/01/13 05:23:55;;;;;;;44.28;41.72;;;;;;;;;;4975257;28;20281;-77
2024/01/13 05:26:22;;;;;;;42.88;40.22;;;;;;;;;;4974063;28;20698;-78
2024/01/13 05:28:50;;;;;;;48.40;45.10;;;;;;;;;;4974934;28;20734;-78
2024/01/13 05:31:17;;;;;;;48.97;45.45;;;;;;;;;;4974895;28;20737;-78
2024/01/13 05:33:44;;;;;;;50.70;47.15;;;;;;;;;;4974693;28;20608;-76
2024/01/13 05:36:11;;;;;;;48.40;44.88;;;;;;;;;;4974143;28;20195;-78
2024/01/13 05:38:38;;;;;;;49.67;46.20;;;;;;;;;;4974422;28;20706;-77
2024/01/13 05:41:05;;;;;;;50.67;46.70;;;;;;;;;;4973691;28;20215;-77
2024/01/13 05:43:32;;;;;;;46.35;43.35;;;;;;;;;;4974114;28;20717;-78
2024/01/13 05:46:01;;;;;;;46.15;42.95;;;;;;;;;;4972715;28;20741;-78
2024/01/13 05:48:28;;;;;;;40.67;38.42;;;;;;;;;;4974392;28;20249;-78
2024/01/13 05:50:55;;;;;;;44.63;41.83;;;;;;;;;;4974705;28;20238;-77
2024/01/13 05:53:22;;;;;;;46.85;43.75;;;;;;;;;;4974788;28;20266;-76
2024/01/13 05:55:49;;;;;;;48.88;45.38;;;;;;;;;;4973823;28;20854;-76
2024/01/13 05:58:16;;;;;;;42.80;40.30;;;;;;;;;;4974191;28;20235;-77
2024/01/13 06:00:43;;;;;;;50.92;47.22;;;;;;;;;;4974110;28;20206;-76
2024/01/13 06:03:12;;;;;;;54.05;49.83;;;;;;;;;;4973840;28;20269;-77
2024/01/13 06:05:39;;;;;;;51.55;47.60;;;;;;;;;;4974100;28;20262;-78
2024/01/13 06:08:06;;;;;;;54.65;50.65;;;;;;;;;;4973979;28;20230;-77
2024/01/13 06:10:34;;;;;;;46.55;43.95;;;;;;;;;;4973806;28;20626;-77
2024/01/13 06:13:01;;;;;;;42.72;40.28;;;;;;;;;;4974096;28;20226;-77
2024/01/13 06:15:29;;;;;;;43.08;40.83;;;;;;;;;;4973577;28;20214;-78
2024/01/13 06:17:56;;;;;;;43.42;41.00;;;;;;;;;;4973959;28;20389;-77
2024/01/13 06:20:24;;;;;;;50.10;46.25;;;;;;;;;;4973974;28;20218;-77
2024/01/13 06:22:51;;;;;;;43.03;40.42;;;;;;;;;;4973902;28;20239;-78
2024/01/13 06:25:18;;;;;;;51.35;47.38;;;;;;;;;;4974028;28;20222;-78
2024/01/13 06:27:45;;;;;;;47.58;44.42;;;;;;;;;;4990486;28;20210;-77
2024/01/13 06:30:12;;;;;;;49.47;45.90;;;;;;;;;;4992918;28;20214;-77
2024/01/13 06:32:39;;;;;;;56.97;51.80;;;;;;;;;;4993259;28;20212;-78
2024/01/13 06:35:07;;;;;;;60.15;55.08;;;;;;;;;;4984609;28;20214;-78
2024/01/13 06:37:35;;;;;;;68.75;59.13;;;;;;;;;;4973118;28;20206;-78
2024/01/13 06:40:03;;;;;;;76.88;67.35;;;;;;;;;;4982347;28;20295;-77
2024/01/13 06:42:30;;;;;;;68.40;61.28;;;;;;;;;;4994431;28;20661;-76
2024/01/13 06:44:57;;;;;;;63.13;56.75;;;;;;;;;;4992958;28;20230;-78
2024/01/13 06:47:23;;;;;;;57.80;52.72;;;;;;;;;;5002086;28;20240;-78
2024/01/13 06:49:50;;;;;;;58.70;52.90;;;;;;;;;;5007555;28;20230;-78
2024/01/13 06:52:17;;;;;;;68.22;61.22;;;;;;;;;;4993930;28;20202;-77
2024/01/13 06:54:46;;;;;;;55.50;50.60;;;;;;;;;;4991677;28;20272;-77
2024/01/13 06:57:13;;;;;;;56.13;51.50;;;;;;;;;;4991495;28;20238;-78
2024/01/13 06:59:40;;;;;;;68.72;62.42;;;;;;;;;;4992196;28;20238;-76
2024/01/13 07:02:07;;;;;;;64.65;58.90;;;;;;;;;;4992625;28;20206;-77
2024/01/13 07:04:34;;;;;;;57.25;52.55;;;;;;;;;;4992588;28;20234;-77
2024/01/13 07:07:02;;;;;;;69.43;62.42;;;;;;;;;;4991967;28;20265;-78
2024/01/13 07:09:29;;;;;;;55.78;51.33;;;;;;;;;;4992359;28;20241;-77
2024/01/13 07:11:57;;;;;;;63.80;58.40;;;;;;;;;;4992278;28;20647;-78
2024/01/13 07:14:25;;;;;;;63.60;58.08;;;;;;;;;;4992369;28;20614;-77
2024/01/13 07:16:51;;;;;;;55.65;51.40;;;;;;;;;;4991930;28;20214;-77
2024/01/13 07:19:18;;;;;;;49.97;46.33;;;;;;;;;;4991227;28;20292;-78
2024/01/13 07:21:45;;;;;;;59.05;54.38;;;;;;;;;;4992214;28;20272;-77
2024/01/13 07:24:12;;;;;;;54.35;48.97;;;;;;;;;;4992060;28;20222;-77
2024/01/13 07:26:39;;;;;;;54.50;50.10;;;;;;;;;;4991917;28;20268;-78
2024/01/13 07:29:08;;;;;;;47.63;43.90;;;;;;;;;;4991915;28;20229;-77
2024/01/13 07:31:35;;;;;;;56.33;51.35;;;;;;;;;;4992128;28;20194;-78
2024/01/13 07:34:02;;;;;;;56.38;51.60;;;;;;;;;;4992247;28;20210;-77
2024/01/13 07:36:29;;;;;;;57.83;53.15;;;;;;;;;;4991291;28;20209;-78
2024/01/13 07:38:56;;;;;;;56.08;51.70;;;;;;;;;;4991172;28;20773;-77
2024/01/13 07:41:23;;;;;;;64.00;57.60;;;;;;;;;;4991736;28;20210;-79
2024/01/13 07:43:50;;;;;;;53.67;49.40;;;;;;;;;;4991977;28;20281;-77
2024/01/13 07:46:19;;;;;;;56.80;47.75;;;;;;;;;;4991528;28;20206;-78
2024/01/13 07:48:46;;;;;;;65.25;58.83;;;;;;;;;;4991407;28;20257;-79
2024/01/13 07:51:13;;;;;;;59.97;54.60;;;;;;;;;;4991344;28;20206;-78
2024/01/13 07:53:40;;;;;;;66.50;60.33;;;;;;;;;;4991740;28;20206;-78
2024/01/13 07:56:07;;;;;;;62.42;56.13;;;;;;;;;;4991047;28;20210;-77
2024/01/13 07:58:34;;;;;;;53.85;49.42;;;;;;;;;;4991774;28;20222;-76
2024/01/13 08:01:01;;;;;;;52.65;48.75;;;;;;;;;;5009665;28;20216;-77
2024/01/13 08:03:29;;;;;;;61.17;55.67;;;;;;;;;;5010998;28;20221;-78
2024/01/13 08:05:56;;;;;;;57.83;53.05;;;;;;;;;;5006342;28;20276;-77
2024/01/13 08:08:23;;;;;;;52.42;48.38;;;;;;;;;;4990707;28;20716;-78
2024/01/13 08:10:50;;;;;;;60.10;54.63;;;;;;;;;;4990565;28;20658;-78
2024/01/13 08:13:18;;;;;;;48.58;45.10;;;;;;;;;;4990103;28;20272;-76
2024/01/13 08:15:45;;;;;;;62.08;56.10;;;;;;;;;;4990512;28;20195;-77
2024/01/13 08:18:12;;;;;;;65.07;58.78;;;;;;;;;;4990536;28;20281;-77
2024/01/13 08:20:40;;;;;;;62.15;56.40;;;;;;;;;;4989822;28;21004;-77
2024/01/13 08:23:07;;;;;;;64.32;58.58;;;;;;;;;;4991127;28;20186;-77
2024/01/13 08:25:34;;;;;;;61.35;56.15;;;;;;;;;;4989812;28;20271;-78
2024/01/13 08:28:01;;;;;;;53.35;49.05;;;;;;;;;;4997823;28;20230;-80
2024/01/13 08:30:28;;;;;;;55.50;50.35;;;;;;;;;;4991624;28;20210;-77
2024/01/13 08:32:55;;;;;;;54.97;50.35;;;;;;;;;;4991129;28;20214;-77
2024/01/13 08:35:22;;;;;;;50.90;46.95;;;;;;;;;;4990705;28;20305;-78
2024/01/13 08:37:51;;;;;;;49.95;45.97;;;;;;;;;;4989433;28;20700;-77
2024/01/13 08:40:18;;;;;;;43.95;40.22;;;;;;;;;;4991510;28;20217;-77
2024/01/13 08:42:47;;;;;;;51.22;46.92;;;;;;;;;;4991407;28;20261;-77
2024/01/13 08:45:14;;;;;;;54.10;49.72;;;;;;;;;;4991510;28;20257;-78
2024/01/13 08:47:41;;;;;;;54.35;49.70;;;;;;;;;;5003426;28;20268;-78
2024/01/13 08:50:08;;;;;;;52.10;47.83;;;;;;;;;;5005183;28;20233;-77
2024/01/13 08:52:35;;;;;;;55.90;51.15;;;;;;;;;;4991067;28;20225;-78
2024/01/13 08:55:03;;;;;;;52.15;47.63;;;;;;;;;;4995386;28;20201;-77
2024/01/13 08:57:30;;;;;;;54.53;49.53;;;;;;;;;;4970701;28;20218;-77
2024/01/13 08:59:57;;;;;;;54.88;49.92;;;;;;;;;;4971318;28;20215;-76
2024/01/13 09:02:24;;;;;;;55.78;50.85;;;;;;;;;;4970433;28;20215;-76
2024/01/13 09:04:51;;;;;;;56.35;51.17;;;;;;;;;;4970838;28;20231;-76
2024/01/13 09:07:18;;;;;;;48.85;45.22;;;;;;;;;;4970969;28;20269;-76
2024/01/13 09:09:45;;;;;;;55.97;51.05;;;;;;;;;;4970969;28;20264;-75
2024/01/13 09:12:14;;;;;;;52.08;47.83;;;;;;;;;;4971833;28;20211;-76
2024/01/13 09:14:41;;;;;;;44.47;41.78;;;;;;;;;;4973054;28;20206;-85
2024/01/13 09:17:09;;;;;;;49.25;45.20;;;;;;;;;;4978414;28;20214;-83
2024/01/13 09:19:36;;;;;;;48.78;44.88;;;;;;;;;;4976301;28;20237;-79
2024/01/13 09:22:03;;;;;;;50.25;46.60;;;;;;;;;;4975442;28;20211;-76
2024/01/13 09:24:30;;;;;;;41.97;39.60;;;;;;;;;;4974043;28;20702;-77
2024/01/13 09:26:57;;;;;;;55.92;50.30;;;;;;;;;;4974105;28;20352;-77
2024/01/13 09:29:25;;;;;;;58.47;52.88;;;;;;;;;;4974338;28;20238;-76
2024/01/13 09:31:52;;;;;;;63.05;56.97;;;;;;;;;;4974928;28;20215;-80
2024/01/13 09:34:19;;;;;;;58.13;52.55;;;;;;;;;;4986793;28;20214;-77
2024/01/13 09:36:46;;;;;;;56.95;51.75;;;;;;;;;;4984985;28;20219;-76
2024/01/13 09:39:14;;;;;;;60.03;54.55;;;;;;;;;;4974325;28;20516;-78
2024/01/13 09:41:41;;;;;;;58.20;52.40;;;;;;;;;;4974333;28;20213;-77
2024/01/13 09:44:10;;;;;;;50.20;46.17;;;;;;;;;;4973554;28;20231;-77
2024/01/13 09:46:38;;;;;;;51.42;47.22;;;;;;;;;;4973768;28;20215;-77
2024/01/13 09:49:07;;;;;;;61.60;55.65;;;;;;;;;;4992411;28;20365;-76
2024/01/13 09:51:34;;;;;;;58.00;53.05;;;;;;;;;;4993264;28;20218;-76
2024/01/13 09:54:07;;;;;;;54.38;49.35;;;;;;;;;;4988290;28;20210;-78
2024/01/13 09:56:35;;;;;;;49.83;46.20;;;;;;;;;;4993005;28;20211;-77
2024/01/13 09:59:02;;;;;;;55.72;51.13;;;;;;;;;;4993214;28;20316;-77
2024/01/13 10:01:31;;;;;;;50.60;46.60;;;;;;;;;;4990699;28;20258;-77
2024/01/13 10:03:59;;;;;;;64.30;58.35;;;;;;;;;;4973466;28;20234;-77
2024/01/13 10:06:26;;;;;;;52.13;48.50;;;;;;;;;;4986407;28;20230;-77
2024/01/13 10:08:53;;;;;;;50.85;46.72;;;;;;;;;;5003753;28;20233;-78
2024/01/13 10:11:20;;;;;;;50.38;46.72;;;;;;;;;;4976997;28;20207;-77
2024/01/13 10:13:58;;;;;;;67.95;61.20;;;;;;;;;;4980300;28;20210;-77
2024/01/13 10:16:27;;;;;;;54.92;50.22;;;;;;;;;;5011662;28;20209;-77
2024/01/13 10:18:54;;;;;;;61.28;56.00;;;;;;;;;;4992938;28;20246;-76
2024/01/13 10:21:23;;;;;;;68.43;61.97;;;;;;;;;;4992836;28;20210;-77
2024/01/13 10:23:50;;;;;;;61.58;56.38;;;;;;;;;;4993206;28;20268;-77
2024/01/13 10:26:17;;;;;;;46.42;43.70;;;;;;;;;;5000595;28;20206;-82
2024/01/13 10:28:44;;;;;;;59.70;54.35;;;;;;;;;;4994592;28;20304;-82
2024/01/13 10:31:11;;;;;;;62.22;56.75;;;;;;;;;;4994555;28;20608;-77
2024/01/13 10:33:40;;;;;;;66.15;60.30;;;;;;;;;;4993904;28;20547;-77
2024/01/13 10:36:10;;;;;;;67.25;60.92;;;;;;;;;;4997204;28;20206;-81
2024/01/13 10:38:39;;;;;;;64.95;58.58;;;;;;;;;;4999986;28;20234;-81
2024/01/13 10:41:06;;;;;;;57.53;52.45;;;;;;;;;;4986539;28;20274;-84
2024/01/13 10:43:34;;;;;;;59.08;53.85;;;;;;;;;;4992958;28;20218;-82
2024/01/13 10:46:03;;;;;;;58.25;49.67;;;;;;;;;;4985335;28;20257;-82
2024/01/13 10:48:34;;;;;;;54.90;49.90;;;;;;;;;;4984089;28;20286;-83
2024/01/13 10:51:03;;;;;;;50.38;46.03;;;;;;;;;;4987417;28;20218;-81
2024/01/13 10:53:30;;;;;;;48.03;44.13;;;;;;;;;;5003779;28;20621;-83
2024/01/13 10:55:59;;;;;;;50.70;46.78;;;;;;;;;;4991664;28;20202;-82
2024/01/13 10:58:26;;;;;;;45.53;41.95;;;;;;;;;;4997283;28;20237;-82
2024/01/13 11:00:53;;;;;;;51.67;47.03;;;;;;;;;;4994137;28;20204;-81
2024/01/13 11:03:21;;;;;;;54.75;49.88;;;;;;;;;;4992629;28;20265;-80
2024/01/13 11:05:48;;;;;;;48.53;44.45;;;;;;;;;;4984095;28;20231;-81
2024/01/13 11:08:15;;;;;;;52.15;47.55;;;;;;;;;;4983792;28;20610;-80
2024/01/13 11:10:44;;;;;;;55.30;50.20;;;;;;;;;;4984064;28;20203;-80
2024/01/13 11:13:15;;;;;;;44.60;41.53;;;;;;;;;;4982147;28;20905;-82
2024/01/13 11:15:45;;;;;;;57.53;52.55;;;;;;;;;;4984351;28;20266;-81
2024/01/13 11:18:13;;;;;;;51.58;47.05;;;;;;;;;;4997026;28;20288;-81
2024/01/13 11:20:59;;;;;;;49.30;45.65;;;;;;;;;;5001508;28;20213;-81
2024/01/13 11:23:26;;;;;;;43.47;40.40;;;;;;;;;;4992032;28;20218;-80
2024/01/13 11:25:53;;;;;;;45.78;42.47;;;;;;;;;;4997032;28;20242;-75
2024/01/13 11:28:22;;;;;;;50.83;46.80;;;;;;;;;;4989429;28;20230;-76
2024/01/13 11:30:49;;;;;;;43.63;40.83;;;;;;;;;;4971934;28;20203;-77
2024/01/13 11:33:17;;;;;;;46.47;42.92;;;;;;;;;;4971618;28;20203;-75
2024/01/13 11:35:46;;;;;;;48.13;44.28;;;;;;;;;;4988596;28;20253;-76
2024/01/13 11:38:14;;;;;;;39.85;36.85;;;;;;;;;;4999063;28;20276;-76
2024/01/13 11:40:46;;;;;;;41.42;38.35;;;;;;;;;;5011585;28;20307;-75
2024/01/13 11:46:17;;;;;;;44.90;41.15;;;;;;;;;;4983192;28;20377;-76
2024/01/13 11:48:46;;;;;;;40.58;37.78;;;;;;;;;;4972718;28;20210;-76
2024/01/13 11:51:14;;;;;;;37.70;35.25;;;;;;;;;;4977926;28;20219;-76
2024/01/13 11:53:43;;;;;;;37.30;34.70;;;;;;;;;;4978840;28;20222;-77
2024/01/13 11:56:10;;;;;;;47.95;44.13;;;;;;;;;;4979015;28;20234;-76
2024/01/13 11:58:37;;;;;;;44.20;40.88;;;;;;;;;;4972847;28;20639;-78
2024/01/13 12:01:05;;;;;;;41.05;38.25;;;;;;;;;;4979593;28;20206;-80
2024/01/13 12:03:33;;;;;;;34.83;32.72;;;;;;;;;;4988357;28;20685;-77
2024/01/13 12:06:00;;;;;;;43.88;40.45;;;;;;;;;;4972458;28;20266;-77
2024/01/13 12:08:27;;;;;;;37.72;35.00;;;;;;;;;;4972570;28;20261;-77
2024/01/13 12:10:56;;;;;;;34.45;32.28;;;;;;;;;;4972701;28;20210;-77
2024/01/13 12:13:23;;;;;;;42.35;38.83;;;;;;;;;;4971325;28;20295;-77
2024/01/13 12:15:51;;;;;;;36.40;33.90;;;;;;;;;;4982414;28;20234;-77
2024/01/13 12:18:20;;;;;;;35.28;32.90;;;;;;;;;;4991750;28;20252;-77
2024/01/13 12:20:49;;;;;;;38.03;35.67;;;;;;;;;;4990399;28;20210;-77
2024/01/13 12:23:17;;;;;;;36.20;33.95;;;;;;;;;;4971808;28;20298;-78
2024/01/13 12:25:44;;;;;;;43.97;40.60;;;;;;;;;;4971315;28;20234;-77
2024/01/13 12:28:11;;;;;;;35.03;32.63;;;;;;;;;;4980043;28;20212;-77
2024/01/13 12:30:39;;;;;;;34.90;32.70;;;;;;;;;;4991419;28;20206;-77
2024/01/13 12:33:06;;;;;;;37.95;35.15;;;;;;;;;;4991291;28;20233;-78
2024/01/13 12:35:33;;;;;;;39.95;36.63;;;;;;;;;;4981562;28;20238;-78
2024/01/13 12:38:04;;;;;;;43.67;40.28;;;;;;;;;;4972385;28;20211;-78
2024/01/13 12:40:32;;;;;;;45.53;41.75;;;;;;;;;;4972547;28;20191;-78
2024/01/13 12:42:59;;;;;;;33.80;32.00;;;;;;;;;;4972035;28;20622;-78
2024/01/13 12:45:27;;;;;;;39.47;37.13;;;;;;;;;;4971728;28;20234;-79
2024/01/13 12:47:54;;;;;;;44.72;41.42;;;;;;;;;;4972195;28;20258;-77
2024/01/13 12:50:21;;;;;;;45.53;42.22;;;;;;;;;;4974704;28;20622;-77
2024/01/13 12:52:48;;;;;;;49.78;45.85;;;;;;;;;;4971731;28;20203;-78
2024/01/13 12:55:17;;;;;;;49.53;46.22;;;;;;;;;;4981924;28;20226;-77
2024/01/13 12:57:44;;;;;;;44.25;41.80;;;;;;;;;;4991787;28;20309;-77
2024/01/13 13:00:12;;;;;;;43.42;40.92;;;;;;;;;;4976088;28;20203;-77
2024/01/13 13:02:39;;;;;;;44.00;41.60;;;;;;;;;;4975471;28;20221;-78
2024/01/13 13:05:07;;;;;;;39.63;37.42;;;;;;;;;;4975197;28;20589;-77
2024/01/13 13:07:34;;;;;;;42.75;39.97;;;;;;;;;;4975772;28;20242;-77
2024/01/13 13:10:01;;;;;;;46.17;42.78;;;;;;;;;;4976127;28;20211;-77
2024/01/13 13:12:29;;;;;;;47.40;44.65;;;;;;;;;;4974893;28;20722;-78
2024/01/13 13:14:56;;;;;;;56.85;52.53;;;;;;;;;;4975010;28;20222;-77
2024/01/13 13:17:23;;;;;;;45.28;42.63;;;;;;;;;;4975495;28;20188;-77
2024/01/13 13:19:50;;;;;;;48.28;45.05;;;;;;;;;;4975565;28;20269;-76
2024/01/13 13:22:17;;;;;;;46.63;43.42;;;;;;;;;;4974860;28;20202;-78
2024/01/13 13:24:44;;;;;;;50.08;46.33;;;;;;;;;;4974583;28;20235;-77
2024/01/13 13:27:12;;;;;;;49.08;45.58;;;;;;;;;;4975214;28;20188;-77
2024/01/13 13:29:41;;;;;;;52.03;47.35;;;;;;;;;;4975399;28;20214;-78
2024/01/13 13:32:08;;;;;;;53.45;49.65;;;;;;;;;;4975597;28;20213;-77
2024/01/13 13:34:36;;;;;;;55.38;50.78;;;;;;;;;;4974674;28;20237;-77
2024/01/13 13:37:03;;;;;;;55.30;51.17;;;;;;;;;;4974629;28;20218;-77
2024/01/13 13:39:34;;;;;;;47.30;44.42;;;;;;;;;;4975477;28;20249;-77
2024/01/13 13:42:02;;;;;;;62.10;56.15;;;;;;;;;;4975584;28;20211;-76
2024/01/13 13:44:31;;;;;;;52.80;49.17;;;;;;;;;;4974627;28;20281;-76
2024/01/13 13:47:00;;;;;;;50.22;46.85;;;;;;;;;;4974012;28;20238;-75
2024/01/13 13:49:27;;;;;;;47.20;44.15;;;;;;;;;;4974804;28;20554;-77
2024/01/13 13:51:54;;;;;;;56.42;52.38;;;;;;;;;;4974948;28;20627;-77
2024/01/13 13:54:21;;;;;;;53.97;49.67;;;;;;;;;;4974361;28;20921;-77
2024/01/13 13:56:48;;;;;;;66.00;60.33;;;;;;;;;;4974839;28;20214;-78
2024/01/13 13:59:15;;;;;;;64.65;59.00;;;;;;;;;;4974628;28;20210;-77
2024/01/13 14:01:42;;;;;;;54.33;50.63;;;;;;;;;;4974935;28;20214;-77
2024/01/13 14:04:10;;;;;;;52.40;48.88;;;;;;;;;;4973992;28;20215;-78
2024/01/13 14:06:37;;;;;;;55.58;51.42;;;;;;;;;;4972904;28;20582;-77
2024/01/13 14:09:05;;;;;;;48.95;46.17;;;;;;;;;;4975043;28;20215;-77
2024/01/13 14:11:33;;;;;;;51.83;48.30;;;;;;;;;;4975275;28;20249;-77
2024/01/13 14:14:00;;;;;;;51.95;48.20;;;;;;;;;;4974847;28;20302;-78
2024/01/13 14:16:27;;;;;;;48.42;44.75;;;;;;;;;;4974646;28;20227;-78
2024/01/13 14:18:54;;;;;;;46.78;43.75;;;;;;;;;;4974187;28;20211;-77
2024/01/13 14:21:23;;;;;;;52.85;49.05;;;;;;;;;;4984365;28;20218;-78
2024/01/13 14:23:50;;;;;;;49.30;45.60;;;;;;;;;;4993295;28;20209;-77
2024/01/13 14:26:18;;;;;;;54.20;49.92;;;;;;;;;;4993479;28;20760;-77